Time;durP1;ratioP1;P1;durP2;ratioP2;P2;SDS_P1;SDS_P2;PMS_P1;PMS_P2;Temp;Humidity;BMP_temperature;BMP_pressure;BME280_temperature;BME280_humidity;BME280_pressure;Samples;Min_cycle;Max_cycle;Signal;HPM_P1;HPM_P2
2023/10/06 00:05:01;;;;;;;4.53;3.83;;;;;;;28.15;52.14;101874.56;21128157;28;20494;-67
2023/10/06 00:15:07;;;;;;;6.53;4.68;;;;;;;28.20;51.97;101884.91;21165779;28;20036;-66
2023/10/06 00:25:18;;;;;;;7.23;6.50;;;;;;;28.22;51.87;101903.13;21098085;28;20074;-66
2023/10/06 00:35:30;;;;;;;10.13;6.32;;;;;;;28.23;51.57;101896.38;21122990;28;20085;-67
2023/10/06 00:45:33;;;;;;;10.93;6.63;;;;;;;28.10;51.56;101877.47;21132459;28;20040;-69
2023/10/06 00:55:35;;;;;;;12.27;6.65;;;;;;;28.21;51.78;101901.47;21119393;28;20441;-68
2023/10/06 01:05:38;;;;;;;9.27;6.35;;;;;;;28.20;51.13;101894.19;21121630;28;20039;-68
2023/10/06 01:15:50;;;;;;;11.00;6.47;;;;;;;28.20;51.64;101894.19;21135545;28;20028;-68
2023/10/06 01:25:54;;;;;;;11.85;6.28;;;;;;;28.18;51.79;101896.47;21157961;28;20469;-68
2023/10/06 01:35:55;;;;;;;12.85;5.93;;;;;;;28.18;51.59;101882.41;21145206;28;20098;-68
2023/10/06 01:45:59;;;;;;;8.88;6.07;;;;;;;28.17;51.62;101875.09;21147383;28;20040;-68
2023/10/06 01:56:07;;;;;;;9.48;5.80;;;;;;;28.18;51.71;101851.47;21153895;28;20047;-68
2023/10/06 02:06:16;;;;;;;9.60;5.53;;;;;;;28.11;51.79;101828.50;21163377;28;20044;-67
2023/10/06 02:16:22;;;;;;;8.00;5.13;;;;;;;28.18;51.78;101840.19;21172856;28;20549;-68
2023/10/06 02:26:26;;;;;;;8.10;5.20;;;;;;;28.17;51.80;101844.13;21169772;28;20039;-65
2023/10/06 02:36:28;;;;;;;7.88;5.53;;;;;;;28.16;51.75;101853.72;21136312;28;20043;-65
2023/10/06 02:46:29;;;;;;;6.43;5.38;;;;;;;28.17;51.81;101852.56;21162168;28;20047;-66
2023/10/06 02:56:36;;;;;;;6.60;4.47;;;;;;;28.16;51.83;101831.22;21090393;28;20074;-66
2023/10/06 03:06:40;;;;;;;6.18;4.85;;;;;;;28.17;51.99;101815.16;21130329;28;20036;-66
2023/10/06 03:16:43;;;;;;;6.47;5.03;;;;;;;28.19;51.96;101812.88;21169330;28;20031;-67
2023/10/06 03:26:45;;;;;;;8.38;4.90;;;;;;;28.18;52.13;101823.31;21170227;28;20100;-65
2023/10/06 03:36:56;;;;;;;8.45;5.25;;;;;;;28.19;52.13;101827.78;21159965;27;20065;-66
2023/10/06 03:47:07;;;;;;;31.25;7.30;;;;;;;28.20;53.97;101843.53;21107417;28;20482;-65
2023/10/06 03:57:15;;;;;;;19.75;5.97;;;;;;;28.23;54.33;101831.66;21136201;27;20047;-64
2023/10/06 04:07:16;;;;;;;21.67;5.78;;;;;;;28.22;53.91;101835.59;21147276;28;20121;-66
2023/10/06 04:17:23;;;;;;;13.95;5.47;;;;;;;28.24;54.05;101826.88;21161207;28;20043;-64
2023/10/06 04:27:26;;;;;;;16.92;5.53;;;;;;;28.23;54.35;101826.03;21148995;28;20059;-65
2023/10/06 04:37:29;;;;;;;11.77;4.70;;;;;;;28.18;54.31;101800.81;21078435;28;20036;-66
2023/10/06 04:47:36;;;;;;;8.73;4.43;;;;;;;28.23;54.46;101789.44;21079364;28;20040;-65
2023/10/06 04:57:37;;;;;;;;;;;;;;;28.24;54.14;101765.78;21132430;28;20055;-64
2023/10/06 05:07:39;;;;;;;10.88;4.68;;;;;;;28.25;54.20;101756.19;21161718;28;19915;-65
2023/10/06 05:17:40;;;;;;;11.18;5.43;;;;;;;28.24;54.34;101748.88;21160794;28;20557;-65
2023/10/06 05:27:46;;;;;;;11.35;4.93;;;;;;;28.23;54.43;101752.84;21160107;28;20065;-63
2023/10/06 05:37:50;;;;;;;10.33;4.23;;;;;;;28.22;54.45;101739.06;21160145;28;20036;-65
2023/10/06 05:47:54;;;;;;;7.70;4.50;;;;;;;28.23;54.34;101733.16;21177158;28;20187;-65
2023/10/06 05:58:00;;;;;;;7.68;4.30;;;;;;;28.24;54.17;101717.09;21130761;28;20048;-65
2023/10/06 06:08:03;;;;;;;7.20;4.70;;;;;;;28.19;54.33;101695.53;21140593;28;20039;-64
2023/10/06 06:18:05;;;;;;;8.07;4.55;;;;;;;28.19;54.40;101684.28;21172001;28;20567;-65
2023/10/06 06:28:08;;;;;;;7.20;5.03;;;;;;;28.14;54.26;101664.69;21150263;28;20048;-65
2023/10/06 06:38:12;;;;;;;9.60;5.30;;;;;;;28.22;54.35;101654.66;21120706;28;20051;-64
2023/10/06 06:48:16;;;;;;;7.18;4.85;;;;;;;28.21;54.26;101630.47;21172296;27;20051;-65
2023/10/06 06:58:18;;;;;;;6.07;4.53;;;;;;;28.19;54.35;101627.16;21152754;28;20054;-65
2023/10/06 07:08:19;;;;;;;5.18;4.22;;;;;;;28.19;54.26;101608.28;21165757;28;20044;-65
2023/10/06 07:18:22;;;;;;;5.90;4.35;;;;;;;28.14;54.12;101580.28;21168041;28;20078;-65
2023/10/06 07:28:23;;;;;;;7.15;4.32;;;;;;;28.18;54.20;101584.13;21151630;28;20043;-64
2023/10/06 07:38:24;;;;;;;6.07;4.82;;;;;;;28.17;54.24;101568.34;21139405;28;20401;-64
2023/10/06 07:48:25;;;;;;;5.15;4.53;;;;;;;28.18;54.25;101584.13;21162099;28;20040;-65
2023/10/06 07:58:27;;;;;;;6.43;4.50;;;;;;;28.17;54.30;101579.63;21130776;28;20494;-64
2023/10/06 08:08:29;;;;;;;5.43;4.25;;;;;;;28.16;54.24;101563.88;21117288;27;20085;-64
2023/10/06 08:18:30;;;;;;;5.75;4.65;;;;;;;28.15;54.11;101565.03;21118815;28;20388;-64
2023/10/06 08:28:31;;;;;;;6.15;4.93;;;;;;;28.15;54.39;101567.03;21122415;28;20044;-65
2023/10/06 08:38:33;;;;;;;6.95;4.78;;;;;;;28.14;54.23;101562.56;21154228;27;20474;-65
2023/10/06 08:48:37;;;;;;;5.03;4.53;;;;;;;28.13;54.27;101561.69;21154818;28;20367;-65
2023/10/06 08:58:38;;;;;;;4.93;4.30;;;;;;;28.12;54.38;101560.03;21154033;28;20051;-65
2023/10/06 09:08:43;;;;;;;6.70;4.97;;;;;;;28.08;54.13;101570.25;21148510;28;20028;-65
2023/10/06 09:19:01;;;;;;;4.90;3.88;;;;;;;28.08;54.38;101587.13;21132658;28;20043;-64
2023/10/06 09:29:03;;;;;;;5.35;4.43;;;;;;;28.10;54.21;101570.78;21122497;28;20116;-64
2023/10/06 09:39:13;;;;;;;4.80;4.30;;;;;;;28.10;54.30;101579.22;21157152;28;20089;-64
2023/10/06 09:49:18;;;;;;;5.55;4.05;;;;;;;28.03;54.33;101562.75;21148676;28;20040;-65
2023/10/06 09:59:21;;;;;;;5.05;4.47;;;;;;;28.08;54.07;101568.28;21152425;28;20052;-65
2023/10/06 10:09:24;;;;;;;5.05;4.43;;;;;;;28.07;54.38;101557.34;21158464;28;20343;-64
2023/10/06 10:19:28;;;;;;;5.45;4.60;;;;;;;28.08;54.37;101547.75;21139109;28;20039;-65
2023/10/06 10:29:30;;;;;;;4.55;4.13;;;;;;;28.04;54.21;101553.19;21143887;28;20040;-64
2023/10/06 10:39:50;;;;;;;5.43;4.57;;;;;;;28.00;54.51;101551.31;21154130;28;20048;-64
2023/10/06 10:49:51;;;;;;;5.43;4.65;;;;;;;28.05;54.24;101552.03;21150436;28;20044;-64
2023/10/06 11:10:06;;;;;;;7.18;4.80;;;;;;;28.05;54.44;101554.03;21134326;28;20112;-65
2023/10/06 11:20:22;;;;;;;4.78;4.28;;;;;;;28.03;54.26;101554.31;21159833;28;20048;-64
2023/10/06 11:30:29;;;;;;;4.90;4.28;;;;;;;28.03;54.19;101551.50;21120707;28;20551;-64
2023/10/06 11:40:35;;;;;;;5.55;4.32;;;;;;;28.03;54.33;101562.75;21137150;28;20043;-64
2023/10/06 11:50:36;;;;;;;5.20;4.27;;;;;;;28.02;54.07;101560.28;21141376;28;20040;-65
2023/10/06 12:00:40;;;;;;;4.65;4.15;;;;;;;28.03;54.25;101573.19;21145789;28;20046;-64
2023/10/06 12:10:51;;;;;;;4.70;4.20;;;;;;;27.99;54.08;101572.13;21166549;27;20063;-65
2023/10/06 12:20:52;;;;;;;5.20;4.57;;;;;;;27.64;54.14;101525.91;21119166;27;20096;-65
2023/10/06 12:30:54;;;;;;;4.32;3.90;;;;;;;28.00;54.08;101579.47;21153731;28;20100;-65
2023/10/06 12:40:55;;;;;;;4.93;4.43;;;;;;;27.99;54.42;101597.47;21159170;27;20073;-65
2023/10/06 12:50:57;;;;;;;8.20;4.90;;;;;;;28.03;54.63;101592.88;21145365;28;20039;-65
2023/10/06 13:00:58;;;;;;;8.82;4.90;;;;;;;27.96;54.75;101592.47;21159416;27;20531;-64
2023/10/06 13:11:03;;;;;;;5.80;4.40;;;;;;;28.01;54.73;101586.75;21134097;27;20050;-63
2023/10/06 13:21:07;;;;;;;7.18;4.60;;;;;;;28.03;54.79;101582.44;21125452;28;20082;-64
2023/10/06 13:31:10;;;;;;;5.28;4.35;;;;;;;28.03;54.85;101578.81;21140013;28;20040;-64
2023/10/06 13:41:14;;;;;;;5.70;4.80;;;;;;;28.02;54.70;101572.34;21148970;28;20108;-65
2023/10/06 13:51:16;;;;;;;8.40;5.15;;;;;;;28.01;54.27;101569.88;21154827;28;20036;-64
2023/10/06 14:01:18;;;;;;;5.57;4.35;;;;;;;28.03;54.36;101567.56;21156379;28;20059;-64
2023/10/06 14:11:19;;;;;;;5.45;4.60;;;;;;;28.02;54.35;101561.09;21175652;28;20040;-64
2023/10/06 14:21:24;;;;;;;7.30;4.93;;;;;;;28.03;54.21;101562.75;21175268;28;20073;-63
2023/10/06 14:31:34;;;;;;;5.07;4.55;;;;;;;28.02;54.24;101549.84;21169333;28;20032;-63
2023/10/06 14:51:57;;;;;;;11.65;4.80;;;;;;;28.04;54.63;101522.25;21145116;27;20110;-64
2023/10/06 15:02:09;;;;;;;9.38;4.97;;;;;;;28.07;54.83;101510.34;21121796;28;20052;-64
2023/10/06 15:12:14;;;;;;;30.58;25.08;;;;;;;28.08;54.59;101499.91;21141556;28;20474;-64
2023/10/06 15:22:15;;;;;;;27.95;23.13;;;;;;;28.08;54.61;101491.47;21163778;27;20036;-64
2023/10/06 15:32:16;;;;;;;21.98;18.13;;;;;;;28.08;54.53;101483.88;21161252;28;20097;-65
2023/10/06 15:42:18;;;;;;;20.90;17.05;;;;;;;28.11;54.49;101462.72;21156138;27;20402;-65
2023/10/06 15:52:19;;;;;;;19.55;15.25;;;;;;;28.11;54.54;101457.09;21140777;28;20036;-65
2023/10/06 16:02:22;;;;;;;16.73;12.05;;;;;;;28.13;54.53;101437.91;21111414;28;20085;-66
2023/10/06 16:12:23;;;;;;;12.57;9.68;;;;;;;28.15;54.50;101432.78;21164153;28;20101;-65
2023/10/06 16:22:27;;;;;;;10.65;8.20;;;;;;;28.21;54.55;101433.50;21162758;28;20048;-63
2023/10/06 16:32:28;;;;;;;11.25;6.75;;;;;;;28.23;54.40;101431.22;21160037;28;21733;-63
2023/10/06 16:42:30;;;;;;;10.52;6.25;;;;;;;28.22;54.29;101413.47;21161923;28;20138;-64
2023/10/06 16:52:31;;;;;;;8.48;5.90;;;;;;;28.24;54.08;101405.56;21162487;27;20396;-64
2023/10/06 17:02:32;;;;;;;10.10;6.30;;;;;;;28.21;54.46;101383.66;21157507;28;20069;-64
2023/10/06 17:12:37;;;;;;;9.93;5.68;;;;;;;28.25;53.92;101362.19;21143939;28;20109;-64
2023/10/06 17:22:39;;;;;;;10.13;4.90;;;;;;;28.26;53.69;101346.94;21150160;28;20055;-64
2023/10/06 17:32:40;;;;;;;12.65;5.20;;;;;;;28.28;53.50;101324.97;21156575;28;20043;-64
2023/10/06 17:42:53;;;;;;;5.70;4.72;;;;;;;28.25;53.06;101317.16;21185200;27;20069;-63
2023/10/06 17:52:57;;;;;;;7.20;4.32;;;;;;;28.25;52.89;101300.28;21177869;27;20419;-64
2023/10/06 18:02:59;;;;;;;9.80;4.88;;;;;;;28.28;52.50;101298.81;21175854;27;20069;-64
2023/10/06 18:13:00;;;;;;;9.15;4.70;;;;;;;28.28;52.42;101294.00;21181062;27;20910;-64
2023/10/06 18:23:05;;;;;;;6.57;4.45;;;;;;;28.27;51.61;101286.72;21166865;27;20039;-64
2023/10/06 18:33:06;;;;;;;7.75;4.10;;;;;;;28.28;51.29;101291.19;21147807;27;20074;-63
2023/10/06 18:43:08;;;;;;;6.57;4.38;;;;;;;28.28;51.43;101282.75;21136433;27;20099;-63
2023/10/06 18:53:09;;;;;;;11.00;4.80;;;;;;;28.27;51.48;101261.41;21162001;28;20040;-63
2023/10/06 19:03:11;;;;;;;7.30;3.90;;;;;;;28.28;50.94;101254.59;21119333;28;20043;-63
2023/10/06 19:13:13;;;;;;;8.30;4.32;;;;;;;28.27;50.93;101254.91;21161298;28;20047;-64
2023/10/06 19:23:15;;;;;;;11.63;4.55;;;;;;;28.28;50.97;101254.59;21145446;27;20048;-64
2023/10/06 19:33:20;;;;;;;8.50;4.03;;;;;;;28.30;51.80;101238.22;21105579;28;20074;-63
2023/10/06 19:43:21;;;;;;;9.13;5.00;;;;;;;28.18;52.29;101226.75;21091716;28;20098;-62
2023/10/06 19:53:24;;;;;;;9.18;4.68;;;;;;;28.33;52.26;101222.69;21131922;28;20043;-63
2023/10/06 20:03:26;;;;;;;8.18;4.90;;;;;;;28.31;52.82;101225.81;21161819;28;20052;-64
2023/10/06 20:13:29;;;;;;;7.75;4.97;;;;;;;28.31;52.71;101225.81;21160915;28;20047;-64
2023/10/06 20:23:31;;;;;;;7.90;3.70;;;;;;;28.30;51.63;101223.31;21153350;28;20101;-63
2023/10/06 20:33:32;;;;;;;9.27;4.60;;;;;;;28.26;52.16;101214.69;21149386;28;20440;-64
2023/10/06 20:43:33;;;;;;;7.95;4.35;;;;;;;28.30;52.25;101217.69;21123011;28;20047;-63
2023/10/06 20:53:35;;;;;;;7.75;4.95;;;;;;;28.29;52.30;101216.88;21160463;28;20104;-64
2023/10/06 21:03:39;;;;;;;8.55;4.63;;;;;;;28.20;52.20;101196.31;21161461;28;20044;-65
2023/10/06 21:13:41;;;;;;;7.18;4.97;;;;;;;28.22;52.52;101193.97;21159685;28;20036;-65
2023/10/06 21:23:43;;;;;;;8.80;5.43;;;;;;;28.23;52.76;101209.72;21159821;28;20394;-64
2023/10/06 21:33:44;;;;;;;9.05;4.65;;;;;;;28.28;53.00;101198.31;21158972;28;20044;-62
2023/10/06 21:43:45;;;;;;;5.68;4.90;;;;;;;28.25;53.35;101206.59;21159435;28;20520;-64
2023/10/06 21:53:47;;;;;;;7.25;4.78;;;;;;;28.26;53.88;101220.31;21137040;28;20081;-65
2023/10/06 22:04:00;;;;;;;8.77;4.13;;;;;;;28.23;54.09;101206.91;21145403;28;20102;-65
2023/10/06 22:14:05;;;;;;;7.38;4.75;;;;;;;28.23;54.33;101212.53;21141171;28;20464;-66
2023/10/06 22:24:08;;;;;;;8.68;4.70;;;;;;;28.22;54.42;101201.59;21128103;28;20047;-65
2023/10/06 22:34:10;;;;;;;7.75;4.43;;;;;;;28.22;54.69;101193.16;21138990;27;20093;-65
2023/10/06 22:44:14;;;;;;;10.32;4.47;;;;;;;28.22;54.76;101182.72;21155648;27;20448;-65
2023/10/06 22:54:17;;;;;;;10.02;4.60;;;;;;;28.21;55.43;101192.31;21145965;27;20556;-65
2023/10/06 23:04:18;;;;;;;10.70;5.25;;;;;;;28.19;55.27;101194.66;21164893;27;20051;-64
2023/10/06 23:14:20;;;;;;;9.02;4.82;;;;;;;28.20;55.76;101196.31;21152097;27;20040;-65
2023/10/06 23:24:21;;;;;;;10.75;5.93;;;;;;;28.20;55.75;101190.66;21132775;27;20040;-64
2023/10/06 23:34:22;;;;;;;13.20;5.25;;;;;;;28.18;55.90;101195.81;21167118;28;20044;-64
2023/10/06 23:44:24;;;;;;;10.05;5.43;;;;;;;28.18;55.90;101195.81;21168958;28;20394;-63
2023/10/06 23:54:25;;;;;;;15.40;5.60;;;;;;;28.17;56.25;101204.56;21153943;28;20047;-65
